METAR / TAF
Helsinki-Vantaa
HELSINKI/VANTAA
Metar
EFHK 211050Z 31007KT 9999 SCT010 BKN012 M06/M08 Q1012 NOSIG

10:50 UTC

Wind: 310° 7kt

Visibility: 9999 m

Sky: SCT 1000 ft

Temp: -6 deg C / 21.2 deg F

Dewpoint: -8 deg C / 17.6 deg F

Pressure: 1012 hPa

TAF
TAF EFHK 210830Z 2109/2209 35006KT 9999 FEW008 BKN013 TEMPO 2109/2124 7000 -SN BKN009 TEMPO 2200/2206 4000 -SN BKN004
Helsinki, Malmi
HELSINKI/MALMI
Turku
TURKU/ABO
Metar
EFTU 211050Z AUTO 00000KT 7000 -SN NSC M09/M10 Q1014

10:50 UTC

Wind: 0° 0kt

Visibility: 7000 m

Sky:

Temp: -9 deg C / 15.8 deg F

Dewpoint: -10 deg C / 14 deg F

Pressure: 1014 hPa

TAF
TAF EFTU 210830Z 2109/2209 VRB02KT CAVOK TEMPO 2116/2123 4000 -SN BKN005 BECMG 2123/2201 BKN010
Tampere, Pirkkala
TAMPERE/PIRKKALA
Metar
EFTP 211050Z AUTO 00000KT 3400 -SN SCT026 BKN032 OVC039 M11/M12 Q1013

10:50 UTC

Wind: 0° 0kt

Visibility: 3400 m

Sky: SCT 2600 ft

Temp: -11 deg C / 12.2 deg F

Dewpoint: -12 deg C / 10.4 deg F

Pressure: 1013 hPa

TAF
TAF EFTP 210822Z 2109/2209 35003KT 5000 -SN BKN002 BECMG 2109/2111 8000 BKN020 TEMPO 2111/2120 4500 -SN BKN009 BECMG 2120/2122 BKN005 TEMPO 2122/2209 2000 BR BKN002
Maarianhamina
MARIEHAMN/ALAND
Metar
EFMA 211050Z 00000KT CAVOK M07/M08 Q1014

10:50 UTC

Wind: 0° 0kt

Visibility:

Sky:

Temp: -7 deg C / 19.4 deg F

Dewpoint: -8 deg C / 17.6 deg F

Pressure: 1014 hPa

TAF
TAF EFMA 210830Z 2109/2118 00000KT 8000 SCT002 BKN100 PROB40 2112/2115 4000 -SHSN FEW015CB TEMPO 2115/2118 BKN006
Pori
PORI (MIL/CIV)
Metar
EFPO 211050Z AUTO VRB02KT 6000 NCD M13/M15 Q1014

10:50 UTC

Wind: ° 2kt

Visibility: 6000 m

Sky:

Temp: -13 deg C / 8.6 deg F

Dewpoint: -15 deg C / 5 deg F

Pressure: 1014 hPa

Vaasa
VAASA
Metar
EFVA 211050Z AUTO 13004KT 9999 -SN FEW018/// OVC032/// M08/M09 Q1013

10:50 UTC

Wind: 130° 4kt

Visibility: 9999 m

Sky: FEW 1800 ft

Temp: -8 deg C / 17.6 deg F

Dewpoint: -9 deg C / 15.8 deg F

Pressure: 1013 hPa

TAF
TAF EFVA 210822Z 2109/2209 13005KT 8000 -SN BKN020 TEMPO 2109/2209 2000 -SN BKN008 PROB40 TEMPO 2114/2116 1500 SHSN BKN008 FEW020CB
Kruunupyy
KRUUNUPYY
Metar
EFKK 211050Z 13002KT 5000 -SN SCT021 BKN030 BKN036 M10/M11 Q1013

10:50 UTC

Wind: 130° 2kt

Visibility: 5000 m

Sky: SCT 2100 ft

Temp: -10 deg C / 14 deg F

Dewpoint: -11 deg C / 12.2 deg F

Pressure: 1013 hPa

TAF
TAF EFKK 210822Z 2109/2117 17003KT 8000 -SN FEW020 BKN040 TEMPO 2109/2117 4000 BKN012
Jyväskylä, Tikkakoski
JYVASKYLA (MIL/C
Metar
EFJY 210950Z AUTO 34004KT 9999 -SN FEW033 SCT088 M11/M12 Q1012

09:50 UTC

Wind: 340° 4kt

Visibility: 9999 m

Sky: FEW 3300 ft

Temp: -11 deg C / 12.2 deg F

Dewpoint: -12 deg C / 10.4 deg F

Pressure: 1012 hPa

TAF
TAF EFJY 210822Z 2109/2209 35004KT 9000 -SN FEW010 BKN020 TEMPO 2109/2113 5000 BKN009 TEMPO 2109/2206 4000 BKN012 BECMG 2206/2208 BKN008
Kuopio
KUOPIO (MIL/CIV)
Metar
EFKU 210950Z AUTO 06002KT 9999 BKN047 M12/M14 Q1013

09:50 UTC

Wind: 60° 2kt

Visibility: 9999 m

Sky: BKN 4700 ft

Temp: -12 deg C / 10.4 deg F

Dewpoint: -14 deg C / 6.8 deg F

Pressure: 1013 hPa

TAF
TAF EFKU 210829Z 2109/2209 09004KT 8000 -SN BKN030 TEMPO 2109/2209 2000 SN
Joensuu
JOENSUU
Metar
EFJO 211020Z AUTO 04003KT 8000 -SN SCT023 M14/M15 Q1012

10:20 UTC

Wind: 40° 3kt

Visibility: 8000 m

Sky: SCT 2300 ft

Temp: -14 deg C / 6.8 deg F

Dewpoint: -15 deg C / 5 deg F

Pressure: 1012 hPa

Halli
HALLI (FIN-AFB)
Metar
EFHA 211050Z AUTO 33004KT 9999 -SN BKN031 M10/M12 Q1012

10:50 UTC

Wind: 330° 4kt

Visibility: 9999 m

Sky: BKN 3100 ft

Temp: -10 deg C / 14 deg F

Dewpoint: -12 deg C / 10.4 deg F

Pressure: 1012 hPa

Utti
UTTI (FIN-AFB)
Metar
EFUT 211050Z AUTO 32004KT 6000 -SN OVC038 M09/M10 Q1011

10:50 UTC

Wind: 320° 4kt

Visibility: 6000 m

Sky: OVC 3800 ft

Temp: -9 deg C / 15.8 deg F

Dewpoint: -10 deg C / 14 deg F

Pressure: 1011 hPa

Mikkeli
MIKKELI
Metar
EFMI 210950Z AUTO 31001KT 3700 -SG OVC041 M11/M12 Q1012

09:50 UTC

Wind: 310° 1kt

Visibility: 3700 m

Sky: OVC 4100 ft

Temp: -11 deg C / 12.2 deg F

Dewpoint: -12 deg C / 10.4 deg F

Pressure: 1012 hPa

Savonlinna
SAVONLINNA (AUT)
Metar
EFSA 211050Z AUTO 03003KT 4000 -SN OVC030 M12/M14 Q1011

10:50 UTC

Wind: 30° 3kt

Visibility: 4000 m

Sky: OVC 3000 ft

Temp: -12 deg C / 10.4 deg F

Dewpoint: -14 deg C / 6.8 deg F

Pressure: 1011 hPa

Lappeenranta
LAPPEENRANTA
Metar
EFLP 211050Z AUTO 31002KT 5000 -SN OVC026 M10/M11 Q1010

10:50 UTC

Wind: 310° 2kt

Visibility: 5000 m

Sky: OVC 2600 ft

Temp: -10 deg C / 14 deg F

Dewpoint: -11 deg C / 12.2 deg F

Pressure: 1010 hPa

Oulu
OULU/ULEABORG
Metar
EFOU 211050Z AUTO 10004KT CAVOK M12/M13 Q1014

10:50 UTC

Wind: 100° 4kt

Visibility:

Sky:

Temp: -12 deg C / 10.4 deg F

Dewpoint: -13 deg C / 8.6 deg F

Pressure: 1014 hPa

TAF
TAF EFOU 210829Z 2109/2209 10005KT 8000 -SN BKN015 TEMPO 2109/2112 2000 SN VV013 TEMPO 2112/2121 5000 BKN010 TEMPO 2121/2206 2000 SN
Kemi
KEMI
Metar
EFKE 211020Z AUTO 08004KT 040V110 9999 -SN FEW019 M13/M16 Q1014

10:20 UTC

Wind: 80° 4kt

Visibility: 9999 m

Sky: FEW 1900 ft

Temp: -13 deg C / 8.6 deg F

Dewpoint: -16 deg C / 3.2 deg F

Pressure: 1014 hPa

TAF
TAF EFKE 210829Z 2109/2118 05005KT 9999 -SN BKN015 TEMPO 2109/2112 4000 BKN013
Rovaniemi
ROVANIEMI (CIV/M
Metar
EFRO 211050Z AUTO 11005KT 1000 -SN FEW022 BKN026 OVC044 M15/M17 Q1014

10:50 UTC

Wind: 110° 5kt

Visibility: 1000 m

Sky: FEW 2200 ft

Temp: -15 deg C / 5 deg F

Dewpoint: -17 deg C / 1.4 deg F

Pressure: 1014 hPa

TAF
TAF EFRO 210829Z 2109/2209 08007KT 8000 -SN BKN020 TEMPO 2109/2115 1500 -SN TEMPO 2115/2206 4000 -SN
Enontekiö
ENONTEKIO
Metar
EFET 211050Z AUTO VRB01KT 1300 -SN OVC029 M18/M20 Q1013

10:50 UTC

Wind: ° 1kt

Visibility: 1300 m

Sky: OVC 2900 ft

Temp: -18 deg C / -0.4 deg F

Dewpoint: -20 deg C / -4 deg F

Pressure: 1013 hPa

TAF
TAF EFET 210829Z 2109/2116 07003KT 8000 -SN OVC020 TEMPO 2109/2116 1300 SN PROB30 2109/2116 BKN009
Ivalo
IVALO
Metar
EFIV 211020Z 04003KT 5000 -SN BKN026 M19/M21 Q1016

10:20 UTC

Wind: 40° 3kt

Visibility: 5000 m

Sky: BKN 2600 ft

Temp: -19 deg C / -2.2 deg F

Dewpoint: -21 deg C / -5.8 deg F

Pressure: 1016 hPa

TAF
TAF EFIV 210829Z 2109/2118 VRB02KT 8000 -SN BKN020 TEMPO 2109/2118 1400 BKN013 PROB30 2111/2118 BKN004
Kittilä
KITTILA
Metar
EFKT 211050Z 02003KT 8000 -SN FEW026 BKN051 M14/M15 Q1014

10:50 UTC

Wind: 20° 3kt

Visibility: 8000 m

Sky: FEW 2600 ft

Temp: -14 deg C / 6.8 deg F

Dewpoint: -15 deg C / 5 deg F

Pressure: 1014 hPa

TAF
TAF AMD EFKT 210831Z 2109/2118 10005KT 8000 -SN BKN020 TEMPO 2109/2115 1300 SN BKN010
Kuusamo
KUUSAMO
Metar
EFKS 211020Z 09005KT 9999 -SN OVC029 M15/M17 Q1014

10:20 UTC

Wind: 90° 5kt

Visibility: 9999 m

Sky: OVC 2900 ft

Temp: -15 deg C / 5 deg F

Dewpoint: -17 deg C / 1.4 deg F

Pressure: 1014 hPa

TAF
TAF AMD EFKS 210855Z 2109/2118 10008KT 8000 -SN BKN025 TEMPO 2109/2113 4000 TEMPO 2113/2118 2500 BKN008 PROB30 2113/2118 1500 BR BKN003
Kajaani
KAJAANI
Metar
EFKI 211050Z 08003KT 9999 -SHSN BKN027 M15/M17 Q1013

10:50 UTC

Wind: 80° 3kt

Visibility: 9999 m

Sky: BKN 2700 ft

Temp: -15 deg C / 5 deg F

Dewpoint: -17 deg C / 1.4 deg F

Pressure: 1013 hPa

TAF
TAF EFKI 210829Z 2109/2118 10005KT 9000 -SN OVC035 PROB40 2109/2115 4000 TEMPO 2115/2118 2500
Varkaus
VARKAUS
Seinäjoki
SEINAJOKI-ILMAJO
Metar
EFSI 210950Z AUTO 00000KT 6000 -SN BKN014 OVC024 M12/M13 Q1013

09:50 UTC

Wind: 0° 0kt

Visibility: 6000 m

Sky: BKN 1400 ft

Temp: -12 deg C / 10.4 deg F

Dewpoint: -13 deg C / 8.6 deg F

Pressure: 1013 hPa

Print Friendly, PDF & Email